sensor_id;sensor_type;location;lat;lon;timestamp;temperature;humidity
14142;DHT22;7151;52.246;4.820;2022-09-28T00:00:27;14.20;81.90
14142;DHT22;7151;52.246;4.820;2022-09-28T00:02:56;14.20;82.10
14142;DHT22;7151;52.246;4.820;2022-09-28T00:05:25;14.20;82.10
14142;DHT22;7151;52.246;4.820;2022-09-28T00:07:52;14.20;82.10
14142;DHT22;7151;52.246;4.820;2022-09-28T00:10:18;14.20;82.20
14142;DHT22;7151;52.246;4.820;2022-09-28T00:12:48;14.10;82.20
14142;DHT22;7151;52.246;4.820;2022-09-28T00:15:13;14.10;82.30
14142;DHT22;7151;52.246;4.820;2022-09-28T00:17:39;14.10;82.40
14142;DHT22;7151;52.246;4.820;2022-09-28T00:20:05;14.10;82.40
14142;DHT22;7151;52.246;4.820;2022-09-28T00:22:30;14.10;82.50
14142;DHT22;7151;52.246;4.820;2022-09-28T00:24:56;14.10;82.70
14142;DHT22;7151;52.246;4.820;2022-09-28T00:27:21;14.10;82.70
14142;DHT22;7151;52.246;4.820;2022-09-28T00:29:47;14.10;82.80
14142;DHT22;7151;52.246;4.820;2022-09-28T00:32:13;14.10;82.80
14142;DHT22;7151;52.246;4.820;2022-09-28T00:34:41;14.10;82.90
14142;DHT22;7151;52.246;4.820;2022-09-28T00:37:10;14.10;82.80
14142;DHT22;7151;52.246;4.820;2022-09-28T00:39:37;14.10;82.80
14142;DHT22;7151;52.246;4.820;2022-09-28T00:42:17;14.10;82.80
14142;DHT22;7151;52.246;4.820;2022-09-28T00:52:59;14.00;82.80
14142;DHT22;7151;52.246;4.820;2022-09-28T00:55:39;14.00;82.70
14142;DHT22;7151;52.246;4.820;2022-09-28T00:58:09;14.00;82.60
14142;DHT22;7151;52.246;4.820;2022-09-28T01:00:37;14.00;82.50
14142;DHT22;7151;52.246;4.820;2022-09-28T01:03:05;14.00;82.50
14142;DHT22;7151;52.246;4.820;2022-09-28T01:05:32;14.00;83.10
14142;DHT22;7151;52.246;4.820;2022-09-28T01:08:00;14.00;82.40
14142;DHT22;7151;52.246;4.820;2022-09-28T01:10:28;14.00;82.40
14142;DHT22;7151;52.246;4.820;2022-09-28T01:12:54;14.00;82.20
14142;DHT22;7151;52.246;4.820;2022-09-28T01:15:20;13.90;82.20
14142;DHT22;7151;52.246;4.820;2022-09-28T01:20:50;14.00;82.20
14142;DHT22;7151;52.246;4.820;2022-09-28T01:28:33;13.90;82.10
14142;DHT22;7151;52.246;4.820;2022-09-28T01:31:09;13.90;82.10
14142;DHT22;7151;52.246;4.820;2022-09-28T01:33:46;13.90;82.10
14142;DHT22;7151;52.246;4.820;2022-09-28T01:36:21;13.80;82.10
14142;DHT22;7151;52.246;4.820;2022-09-28T01:38:56;13.80;81.90
14142;DHT22;7151;52.246;4.820;2022-09-28T01:41:24;13.80;81.90
14142;DHT22;7151;52.246;4.820;2022-09-28T01:43:54;13.80;81.90
14142;DHT22;7151;52.246;4.820;2022-09-28T01:46:23;13.80;81.90
14142;DHT22;7151;52.246;4.820;2022-09-28T01:48:56;13.80;82.00
14142;DHT22;7151;52.246;4.820;2022-09-28T01:54:05;13.80;82.10
14142;DHT22;7151;52.246;4.820;2022-09-28T01:56:40;13.80;82.10
14142;DHT22;7151;52.246;4.820;2022-09-28T01:59:13;13.80;82.10
14142;DHT22;7151;52.246;4.820;2022-09-28T02:01:52;13.70;82.10
14142;DHT22;7151;52.246;4.820;2022-09-28T02:04:28;13.80;82.20
14142;DHT22;7151;52.246;4.820;2022-09-28T02:07:04;13.80;82.40
14142;DHT22;7151;52.246;4.820;2022-09-28T02:09:36;13.70;82.40
14142;DHT22;7151;52.246;4.820;2022-09-28T02:12:16;13.80;82.50
14142;DHT22;7151;52.246;4.820;2022-09-28T02:14:48;13.80;82.70
14142;DHT22;7151;52.246;4.820;2022-09-28T02:17:14;13.80;82.70
14142;DHT22;7151;52.246;4.820;2022-09-28T02:19:40;13.80;82.80
14142;DHT22;7151;52.246;4.820;2022-09-28T02:22:26;13.70;82.80
14142;DHT22;7151;52.246;4.820;2022-09-28T02:25:05;13.80;83.00
14142;DHT22;7151;52.246;4.820;2022-09-28T02:27:37;13.80;83.00
14142;DHT22;7151;52.246;4.820;2022-09-28T02:30:05;13.80;83.70
14142;DHT22;7151;52.246;4.820;2022-09-28T02:32:34;13.80;83.00
14142;DHT22;7151;52.246;4.820;2022-09-28T02:35:10;13.80;83.00
14142;DHT22;7151;52.246;4.820;2022-09-28T02:37:37;13.80;83.00
14142;DHT22;7151;52.246;4.820;2022-09-28T02:40:15;13.80;82.90
14142;DHT22;7151;52.246;4.820;2022-09-28T02:43:18;13.80;83.00
14142;DHT22;7151;52.246;4.820;2022-09-28T02:49:04;13.80;82.80
14142;DHT22;7151;52.246;4.820;2022-09-28T02:51:52;13.80;82.80
14142;DHT22;7151;52.246;4.820;2022-09-28T02:59:51;13.70;82.80
14142;DHT22;7151;52.246;4.820;2022-09-28T03:02:26;13.70;83.00
14142;DHT22;7151;52.246;4.820;2022-09-28T03:07:57;13.70;83.10
14142;DHT22;7151;52.246;4.820;2022-09-28T03:10:38;13.70;83.20
14142;DHT22;7151;52.246;4.820;2022-09-28T03:13:05;13.70;83.30
14142;DHT22;7151;52.246;4.820;2022-09-28T03:15:33;13.70;83.30
14142;DHT22;7151;52.246;4.820;2022-09-28T03:17:59;13.70;83.40
14142;DHT22;7151;52.246;4.820;2022-09-28T03:20:26;13.70;83.50
14142;DHT22;7151;52.246;4.820;2022-09-28T03:22:52;13.70;83.60
14142;DHT22;7151;52.246;4.820;2022-09-28T03:25:17;13.70;83.60
14142;DHT22;7151;52.246;4.820;2022-09-28T03:27:43;13.70;83.70
14142;DHT22;7151;52.246;4.820;2022-09-28T03:30:10;13.80;83.80
14142;DHT22;7151;52.246;4.820;2022-09-28T03:32:36;13.70;83.70
14142;DHT22;7151;52.246;4.820;2022-09-28T03:35:03;13.80;83.70
14142;DHT22;7151;52.246;4.820;2022-09-28T03:37:29;13.80;83.70
14142;DHT22;7151;52.246;4.820;2022-09-28T03:39:55;13.70;83.60
14142;DHT22;7151;52.246;4.820;2022-09-28T03:42:20;13.70;83.50
14142;DHT22;7151;52.246;4.820;2022-09-28T03:44:46;13.80;83.50
14142;DHT22;7151;52.246;4.820;2022-09-28T03:47:12;13.70;83.40
14142;DHT22;7151;52.246;4.820;2022-09-28T03:49:38;13.80;83.50
14142;DHT22;7151;52.246;4.820;2022-09-28T03:52:04;13.70;83.50
14142;DHT22;7151;52.246;4.820;2022-09-28T03:54:29;13.70;83.50
14142;DHT22;7151;52.246;4.820;2022-09-28T03:56:55;13.70;83.60
14142;DHT22;7151;52.246;4.820;2022-09-28T03:59:20;13.70;83.60
14142;DHT22;7151;52.246;4.820;2022-09-28T04:01:50;13.70;83.60
14142;DHT22;7151;52.246;4.820;2022-09-28T04:04:15;13.80;83.70
14142;DHT22;7151;52.246;4.820;2022-09-28T04:06:41;13.80;83.70
14142;DHT22;7151;52.246;4.820;2022-09-28T04:09:07;13.70;83.70
14142;DHT22;7151;52.246;4.820;2022-09-28T04:11:32;13.70;83.60
14142;DHT22;7151;52.246;4.820;2022-09-28T04:13:58;13.70;83.60
14142;DHT22;7151;52.246;4.820;2022-09-28T04:16:24;13.70;83.60
14142;DHT22;7151;52.246;4.820;2022-09-28T04:18:49;13.70;83.60
14142;DHT22;7151;52.246;4.820;2022-09-28T04:21:16;13.70;83.60
14142;DHT22;7151;52.246;4.820;2022-09-28T04:23:43;13.70;83.70
14142;DHT22;7151;52.246;4.820;2022-09-28T04:26:20;13.70;83.70
14142;DHT22;7151;52.246;4.820;2022-09-28T04:28:46;13.80;83.90
14142;DHT22;7151;52.246;4.820;2022-09-28T04:31:40;13.70;83.90
14142;DHT22;7151;52.246;4.820;2022-09-28T04:34:06;13.70;84.00
14142;DHT22;7151;52.246;4.820;2022-09-28T04:36:32;13.70;84.00
14142;DHT22;7151;52.246;4.820;2022-09-28T04:38:58;13.70;84.10
14142;DHT22;7151;52.246;4.820;2022-09-28T04:41:24;13.70;84.20
14142;DHT22;7151;52.246;4.820;2022-09-28T04:43:50;13.70;84.20
14142;DHT22;7151;52.246;4.820;2022-09-28T04:46:15;13.80;84.30
14142;DHT22;7151;52.246;4.820;2022-09-28T04:48:41;13.80;84.30
14142;DHT22;7151;52.246;4.820;2022-09-28T04:51:06;13.80;84.20
14142;DHT22;7151;52.246;4.820;2022-09-28T04:53:32;13.80;84.20
14142;DHT22;7151;52.246;4.820;2022-09-28T04:56:04;13.80;84.20
14142;DHT22;7151;52.246;4.820;2022-09-28T04:58:30;13.80;84.20
14142;DHT22;7151;52.246;4.820;2022-09-28T05:00:58;13.80;84.10
14142;DHT22;7151;52.246;4.820;2022-09-28T05:03:24;13.70;84.00
14142;DHT22;7151;52.246;4.820;2022-09-28T05:05:50;13.70;83.90
14142;DHT22;7151;52.246;4.820;2022-09-28T05:08:16;13.70;83.80
14142;DHT22;7151;52.246;4.820;2022-09-28T05:10:42;13.70;83.70
14142;DHT22;7151;52.246;4.820;2022-09-28T05:13:09;13.70;83.70
14142;DHT22;7151;52.246;4.820;2022-09-28T05:15:36;13.70;83.70
14142;DHT22;7151;52.246;4.820;2022-09-28T05:18:02;13.70;83.60
14142;DHT22;7151;52.246;4.820;2022-09-28T05:20:28;13.60;84.20
14142;DHT22;7151;52.246;4.820;2022-09-28T05:22:54;13.60;83.40
14142;DHT22;7151;52.246;4.820;2022-09-28T05:25:20;13.60;83.40
14142;DHT22;7151;52.246;4.820;2022-09-28T05:27:45;13.60;83.40
14142;DHT22;7151;52.246;4.820;2022-09-28T05:30:11;13.60;83.50
14142;DHT22;7151;52.246;4.820;2022-09-28T05:32:40;13.60;83.50
14142;DHT22;7151;52.246;4.820;2022-09-28T05:35:06;13.60;83.50
14142;DHT22;7151;52.246;4.820;2022-09-28T05:37:32;13.60;83.60
14142;DHT22;7151;52.246;4.820;2022-09-28T05:39:57;13.60;83.60
14142;DHT22;7151;52.246;4.820;2022-09-28T05:42:26;13.60;83.70
14142;DHT22;7151;52.246;4.820;2022-09-28T05:44:51;13.60;83.70
14142;DHT22;7151;52.246;4.820;2022-09-28T05:47:17;13.60;83.90
14142;DHT22;7151;52.246;4.820;2022-09-28T05:49:43;13.70;84.00
14142;DHT22;7151;52.246;4.820;2022-09-28T05:52:08;13.60;83.90
14142;DHT22;7151;52.246;4.820;2022-09-28T05:54:33;13.60;84.00
14142;DHT22;7151;52.246;4.820;2022-09-28T05:56:59;13.60;84.00
14142;DHT22;7151;52.246;4.820;2022-09-28T05:59:24;13.60;84.00
14142;DHT22;7151;52.246;4.820;2022-09-28T06:01:50;13.60;83.90
14142;DHT22;7151;52.246;4.820;2022-09-28T06:04:15;13.60;83.90
14142;DHT22;7151;52.246;4.820;2022-09-28T06:06:41;13.60;83.90
14142;DHT22;7151;52.246;4.820;2022-09-28T06:09:07;13.60;83.90
14142;DHT22;7151;52.246;4.820;2022-09-28T06:11:33;13.60;83.90
14142;DHT22;7151;52.246;4.820;2022-09-28T06:13:58;13.60;83.90
14142;DHT22;7151;52.246;4.820;2022-09-28T06:16:24;13.60;83.90
14142;DHT22;7151;52.246;4.820;2022-09-28T06:18:50;13.60;83.90
14142;DHT22;7151;52.246;4.820;2022-09-28T06:21:15;13.60;83.90
14142;DHT22;7151;52.246;4.820;2022-09-28T06:23:41;13.60;83.90
14142;DHT22;7151;52.246;4.820;2022-09-28T06:26:07;13.60;83.90
14142;DHT22;7151;52.246;4.820;2022-09-28T06:28:32;13.60;84.10
14142;DHT22;7151;52.246;4.820;2022-09-28T06:30:59;13.60;83.90
14142;DHT22;7151;52.246;4.820;2022-09-28T06:33:25;13.60;84.00
14142;DHT22;7151;52.246;4.820;2022-09-28T06:35:51;13.60;84.00
14142;DHT22;7151;52.246;4.820;2022-09-28T06:38:17;13.60;84.00
14142;DHT22;7151;52.246;4.820;2022-09-28T06:40:43;13.60;84.10
14142;DHT22;7151;52.246;4.820;2022-09-28T06:43:13;13.60;84.10
14142;DHT22;7151;52.246;4.820;2022-09-28T06:45:40;13.60;84.20
14142;DHT22;7151;52.246;4.820;2022-09-28T06:48:07;13.60;84.10
14142;DHT22;7151;52.246;4.820;2022-09-28T06:50:35;13.60;84.20
14142;DHT22;7151;52.246;4.820;2022-09-28T06:53:02;13.60;84.20
14142;DHT22;7151;52.246;4.820;2022-09-28T06:55:28;13.60;84.30
14142;DHT22;7151;52.246;4.820;2022-09-28T06:58:05;13.60;84.40
14142;DHT22;7151;52.246;4.820;2022-09-28T07:00:33;13.60;84.50
14142;DHT22;7151;52.246;4.820;2022-09-28T07:03:01;13.70;84.60
14142;DHT22;7151;52.246;4.820;2022-09-28T07:05:27;13.70;84.70
14142;DHT22;7151;52.246;4.820;2022-09-28T07:07:56;13.70;84.80
14142;DHT22;7151;52.246;4.820;2022-09-28T07:10:26;13.70;84.90
14142;DHT22;7151;52.246;4.820;2022-09-28T07:12:55;13.70;85.00
14142;DHT22;7151;52.246;4.820;2022-09-28T07:15:21;13.70;85.00
14142;DHT22;7151;52.246;4.820;2022-09-28T07:17:47;13.80;85.10
14142;DHT22;7151;52.246;4.820;2022-09-28T07:20:13;13.80;85.30
14142;DHT22;7151;52.246;4.820;2022-09-28T07:22:39;13.80;85.30
14142;DHT22;7151;52.246;4.820;2022-09-28T07:25:08;13.80;85.40
14142;DHT22;7151;52.246;4.820;2022-09-28T07:27:34;13.80;85.60
14142;DHT22;7151;52.246;4.820;2022-09-28T07:30:06;13.90;85.80
14142;DHT22;7151;52.246;4.820;2022-09-28T07:32:31;13.90;85.90
14142;DHT22;7151;52.246;4.820;2022-09-28T07:35:01;13.90;86.00
14142;DHT22;7151;52.246;4.820;2022-09-28T07:37:34;14.00;86.20
14142;DHT22;7151;52.246;4.820;2022-09-28T07:40:01;14.10;86.30
14142;DHT22;7151;52.246;4.820;2022-09-28T07:42:45;14.00;86.40
14142;DHT22;7151;52.246;4.820;2022-09-28T07:45:11;14.10;86.50
14142;DHT22;7151;52.246;4.820;2022-09-28T07:47:37;14.10;86.70
14142;DHT22;7151;52.246;4.820;2022-09-28T07:50:02;14.10;86.70
14142;DHT22;7151;52.246;4.820;2022-09-28T07:52:28;14.20;86.90
14142;DHT22;7151;52.246;4.820;2022-09-28T07:54:54;14.20;87.00
14142;DHT22;7151;52.246;4.820;2022-09-28T07:57:20;14.20;87.10
14142;DHT22;7151;52.246;4.820;2022-09-28T07:59:47;14.30;87.30
14142;DHT22;7151;52.246;4.820;2022-09-28T08:02:14;14.30;87.40
14142;DHT22;7151;52.246;4.820;2022-09-28T08:04:40;14.40;87.50
14142;DHT22;7151;52.246;4.820;2022-09-28T08:07:10;14.40;87.50
14142;DHT22;7151;52.246;4.820;2022-09-28T08:09:36;14.40;87.50
14142;DHT22;7151;52.246;4.820;2022-09-28T08:12:02;14.50;87.50
14142;DHT22;7151;52.246;4.820;2022-09-28T08:14:30;14.50;87.50
14142;DHT22;7151;52.246;4.820;2022-09-28T08:17:02;14.50;87.50
14142;DHT22;7151;52.246;4.820;2022-09-28T08:19:28;14.60;87.60
14142;DHT22;7151;52.246;4.820;2022-09-28T08:22:14;14.60;87.60
14142;DHT22;7151;52.246;4.820;2022-09-28T08:24:39;14.70;87.70
14142;DHT22;7151;52.246;4.820;2022-09-28T08:27:05;14.70;87.80
14142;DHT22;7151;52.246;4.820;2022-09-28T08:29:31;14.80;87.90
14142;DHT22;7151;52.246;4.820;2022-09-28T08:31:57;14.80;87.90
14142;DHT22;7151;52.246;4.820;2022-09-28T08:34:24;14.90;87.80
14142;DHT22;7151;52.246;4.820;2022-09-28T08:36:49;14.90;87.60
14142;DHT22;7151;52.246;4.820;2022-09-28T08:39:15;14.90;87.70
14142;DHT22;7151;52.246;4.820;2022-09-28T08:41:42;15.00;87.80
14142;DHT22;7151;52.246;4.820;2022-09-28T08:44:13;15.00;87.70
14142;DHT22;7151;52.246;4.820;2022-09-28T08:46:45;15.10;88.10
14142;DHT22;7151;52.246;4.820;2022-09-28T08:57:18;15.40;87.60
14142;DHT22;7151;52.246;4.820;2022-09-28T08:59:51;15.40;87.60
14142;DHT22;7151;52.246;4.820;2022-09-28T09:02:35;15.40;87.30
14142;DHT22;7151;52.246;4.820;2022-09-28T09:05:05;15.50;87.10
14142;DHT22;7151;52.246;4.820;2022-09-28T09:08:17;15.50;86.90
14142;DHT22;7151;52.246;4.820;2022-09-28T09:16:34;15.60;86.60
14142;DHT22;7151;52.246;4.820;2022-09-28T09:19:26;15.60;86.70
14142;DHT22;7151;52.246;4.820;2022-09-28T09:21:58;15.70;86.60
14142;DHT22;7151;52.246;4.820;2022-09-28T09:24:45;15.70;86.50
14142;DHT22;7151;52.246;4.820;2022-09-28T09:30:12;15.80;86.60
14142;DHT22;7151;52.246;4.820;2022-09-28T09:32:46;15.90;86.70
14142;DHT22;7151;52.246;4.820;2022-09-28T09:38:16;16.00;86.20
14142;DHT22;7151;52.246;4.820;2022-09-28T09:40:51;16.00;86.00
14142;DHT22;7151;52.246;4.820;2022-09-28T09:57:19;16.00;85.30
14142;DHT22;7151;52.246;4.820;2022-09-28T09:59:47;16.00;85.30
14142;DHT22;7151;52.246;4.820;2022-09-28T10:02:27;16.10;85.30
14142;DHT22;7151;52.246;4.820;2022-09-28T10:05:01;16.10;85.10
14142;DHT22;7151;52.246;4.820;2022-09-28T10:10:34;16.10;84.90
14142;DHT22;7151;52.246;4.820;2022-09-28T10:13:00;16.10;84.90
14142;DHT22;7151;52.246;4.820;2022-09-28T10:15:29;16.10;84.90
14142;DHT22;7151;52.246;4.820;2022-09-28T10:17:57;16.20;84.80
14142;DHT22;7151;52.246;4.820;2022-09-28T10:20:24;16.20;84.60
14142;DHT22;7151;52.246;4.820;2022-09-28T10:22:51;16.30;84.30
14142;DHT22;7151;52.246;4.820;2022-09-28T10:25:20;16.40;84.20
14142;DHT22;7151;52.246;4.820;2022-09-28T10:27:47;16.40;84.20
14142;DHT22;7151;52.246;4.820;2022-09-28T10:32:44;16.50;84.00
14142;DHT22;7151;52.246;4.820;2022-09-28T10:35:29;16.50;83.70
14142;DHT22;7151;52.246;4.820;2022-09-28T10:37:58;16.60;83.30
14142;DHT22;7151;52.246;4.820;2022-09-28T10:43:25;16.60;82.50
14142;DHT22;7151;52.246;4.820;2022-09-28T10:46:07;16.70;82.20
14142;DHT22;7151;52.246;4.820;2022-09-28T10:48:54;16.70;82.10
14142;DHT22;7151;52.246;4.820;2022-09-28T10:51:48;16.80;81.90
14142;DHT22;7151;52.246;4.820;2022-09-28T10:54:26;16.80;82.20
14142;DHT22;7151;52.246;4.820;2022-09-28T10:56:53;16.80;81.20
14142;DHT22;7151;52.246;4.820;2022-09-28T11:04:42;17.00;80.90
14142;DHT22;7151;52.246;4.820;2022-09-28T11:07:18;17.00;80.80
14142;DHT22;7151;52.246;4.820;2022-09-28T11:09:50;17.00;80.70
14142;DHT22;7151;52.246;4.820;2022-09-28T11:12:21;17.10;80.60
14142;DHT22;7151;52.246;4.820;2022-09-28T11:14:53;17.10;80.60
14142;DHT22;7151;52.246;4.820;2022-09-28T11:19:57;17.20;81.50
14142;DHT22;7151;52.246;4.820;2022-09-28T11:22:37;17.30;81.20
14142;DHT22;7151;52.246;4.820;2022-09-28T11:27:41;17.40;79.90
14142;DHT22;7151;52.246;4.820;2022-09-28T11:30:43;17.50;79.60
14142;DHT22;7151;52.246;4.820;2022-09-28T11:33:14;17.50;79.10
14142;DHT22;7151;52.246;4.820;2022-09-28T11:35:57;17.60;79.10
14142;DHT22;7151;52.246;4.820;2022-09-28T11:38:39;17.60;78.60
14142;DHT22;7151;52.246;4.820;2022-09-28T11:41:09;17.60;78.10
14142;DHT22;7151;52.246;4.820;2022-09-28T11:43:42;17.70;78.10
14142;DHT22;7151;52.246;4.820;2022-09-28T11:46:30;17.70;78.00
14142;DHT22;7151;52.246;4.820;2022-09-28T11:51:45;17.80;77.90
14142;DHT22;7151;52.246;4.820;2022-09-28T11:56:51;17.90;77.70
14142;DHT22;7151;52.246;4.820;2022-09-28T11:59:25;18.00;77.30
14142;DHT22;7151;52.246;4.820;2022-09-28T12:01:57;18.00;76.70
14142;DHT22;7151;52.246;4.820;2022-09-28T12:04:41;18.10;76.20
14142;DHT22;7151;52.246;4.820;2022-09-28T12:07:28;18.10;76.10
14142;DHT22;7151;52.246;4.820;2022-09-28T12:10:16;18.20;76.10
14142;DHT22;7151;52.246;4.820;2022-09-28T12:12:58;18.20;75.90
14142;DHT22;7151;52.246;4.820;2022-09-28T12:15:46;18.20;76.00
14142;DHT22;7151;52.246;4.820;2022-09-28T12:21:30;18.40;75.80
14142;DHT22;7151;52.246;4.820;2022-09-28T12:24:27;18.40;75.50
14142;DHT22;7151;52.246;4.820;2022-09-28T12:26:59;18.40;75.20
14142;DHT22;7151;52.246;4.820;2022-09-28T12:29:32;18.50;75.30
14142;DHT22;7151;52.246;4.820;2022-09-28T12:34:53;18.60;75.20
14142;DHT22;7151;52.246;4.820;2022-09-28T12:40:24;18.70;74.60
14142;DHT22;7151;52.246;4.820;2022-09-28T12:53:54;18.70;73.80
14142;DHT22;7151;52.246;4.820;2022-09-28T12:59:24;18.70;73.10
14142;DHT22;7151;52.246;4.820;2022-09-28T13:07:44;18.80;73.40
14142;DHT22;7151;52.246;4.820;2022-09-28T13:15:41;18.90;73.00
14142;DHT22;7151;52.246;4.820;2022-09-28T13:23:38;19.20;73.40
14142;DHT22;7151;52.246;4.820;2022-09-28T13:26:27;19.20;71.90
14142;DHT22;7151;52.246;4.820;2022-09-28T13:28:59;19.30;71.70
14142;DHT22;7151;52.246;4.820;2022-09-28T13:31:30;19.40;71.60
14142;DHT22;7151;52.246;4.820;2022-09-28T13:33:59;19.50;71.50
14142;DHT22;7151;52.246;4.820;2022-09-28T13:39:01;19.50;70.40
14142;DHT22;7151;52.246;4.820;2022-09-28T13:41:28;19.60;70.30
14142;DHT22;7151;52.246;4.820;2022-09-28T13:46:49;19.70;69.40
14142;DHT22;7151;52.246;4.820;2022-09-28T13:49:25;19.80;69.30
14142;DHT22;7151;52.246;4.820;2022-09-28T14:02:35;19.80;68.10
14142;DHT22;7151;52.246;4.820;2022-09-28T14:05:31;19.80;67.40
14142;DHT22;7151;52.246;4.820;2022-09-28T14:13:08;19.60;68.70
14142;DHT22;7151;52.246;4.820;2022-09-28T14:15:37;19.50;69.00
14142;DHT22;7151;52.246;4.820;2022-09-28T14:18:19;19.40;69.00
14142;DHT22;7151;52.246;4.820;2022-09-28T14:21:23;19.30;69.10
14142;DHT22;7151;52.246;4.820;2022-09-28T14:24:13;19.20;69.30
14142;DHT22;7151;52.246;4.820;2022-09-28T14:29:28;18.90;68.90
14142;DHT22;7151;52.246;4.820;2022-09-28T14:32:03;18.80;69.00
14142;DHT22;7151;52.246;4.820;2022-09-28T14:34:53;18.70;69.10
14142;DHT22;7151;52.246;4.820;2022-09-28T14:40:23;18.40;69.70
14142;DHT22;7151;52.246;4.820;2022-09-28T14:45:50;18.20;70.30
14142;DHT22;7151;52.246;4.820;2022-09-28T14:53:52;18.00;71.20
14142;DHT22;7151;52.246;4.820;2022-09-28T14:56:19;18.00;71.60
14142;DHT22;7151;52.246;4.820;2022-09-28T14:58:46;18.00;71.90
14142;DHT22;7151;52.246;4.820;2022-09-28T15:01:17;17.90;72.20
14142;DHT22;7151;52.246;4.820;2022-09-28T15:03:47;17.90;72.60
14142;DHT22;7151;52.246;4.820;2022-09-28T15:06:16;17.90;72.70
14142;DHT22;7151;52.246;4.820;2022-09-28T15:08:44;17.90;72.80
14142;DHT22;7151;52.246;4.820;2022-09-28T15:11:13;17.90;73.00
14142;DHT22;7151;52.246;4.820;2022-09-28T15:13:41;17.90;73.20
14142;DHT22;7151;52.246;4.820;2022-09-28T15:16:09;17.90;73.40
14142;DHT22;7151;52.246;4.820;2022-09-28T15:18:59;17.90;73.60
14142;DHT22;7151;52.246;4.820;2022-09-28T15:21:41;17.90;73.80
14142;DHT22;7151;52.246;4.820;2022-09-28T15:24:58;17.90;73.80
14142;DHT22;7151;52.246;4.820;2022-09-28T15:27:33;17.90;74.00
14142;DHT22;7151;52.246;4.820;2022-09-28T15:32:41;18.00;74.50
14142;DHT22;7151;52.246;4.820;2022-09-28T15:35:17;18.00;74.40
14142;DHT22;7151;52.246;4.820;2022-09-28T15:37:46;18.00;74.30
14142;DHT22;7151;52.246;4.820;2022-09-28T15:40:18;18.00;74.00
14142;DHT22;7151;52.246;4.820;2022-09-28T15:42:44;18.00;73.90
14142;DHT22;7151;52.246;4.820;2022-09-28T15:45:18;18.00;73.70
14142;DHT22;7151;52.246;4.820;2022-09-28T15:47:52;18.00;73.80
14142;DHT22;7151;52.246;4.820;2022-09-28T15:50:26;18.00;73.90
14142;DHT22;7151;52.246;4.820;2022-09-28T15:52:58;18.00;74.20
14142;DHT22;7151;52.246;4.820;2022-09-28T15:55:31;18.00;74.30
14142;DHT22;7151;52.246;4.820;2022-09-28T15:58:23;18.00;74.30
14142;DHT22;7151;52.246;4.820;2022-09-28T16:00:53;18.00;74.30
14142;DHT22;7151;52.246;4.820;2022-09-28T16:03:36;18.00;74.20
14142;DHT22;7151;52.246;4.820;2022-09-28T16:06:08;18.00;74.30
14142;DHT22;7151;52.246;4.820;2022-09-28T16:08:38;18.00;74.50
14142;DHT22;7151;52.246;4.820;2022-09-28T16:11:15;18.00;74.60
14142;DHT22;7151;52.246;4.820;2022-09-28T16:14:02;18.00;74.60
14142;DHT22;7151;52.246;4.820;2022-09-28T16:16:42;18.00;74.50
14142;DHT22;7151;52.246;4.820;2022-09-28T16:19:26;18.00;74.50
14142;DHT22;7151;52.246;4.820;2022-09-28T16:21:57;17.90;74.30
14142;DHT22;7151;52.246;4.820;2022-09-28T16:24:27;17.90;74.40
14142;DHT22;7151;52.246;4.820;2022-09-28T16:27:01;17.90;74.50
14142;DHT22;7151;52.246;4.820;2022-09-28T16:29:35;17.90;74.60
14142;DHT22;7151;52.246;4.820;2022-09-28T16:34:51;17.80;74.80
14142;DHT22;7151;52.246;4.820;2022-09-28T16:37:31;17.80;75.60
14142;DHT22;7151;52.246;4.820;2022-09-28T16:39:57;17.80;75.00
14142;DHT22;7151;52.246;4.820;2022-09-28T16:42:23;17.80;75.10
14142;DHT22;7151;52.246;4.820;2022-09-28T16:44:50;17.80;75.10
14142;DHT22;7151;52.246;4.820;2022-09-28T16:47:16;17.70;75.10
14142;DHT22;7151;52.246;4.820;2022-09-28T16:49:42;17.70;75.10
14142;DHT22;7151;52.246;4.820;2022-09-28T16:52:10;17.70;75.10
14142;DHT22;7151;52.246;4.820;2022-09-28T16:54:36;17.70;75.20
14142;DHT22;7151;52.246;4.820;2022-09-28T16:57:23;17.70;75.10
14142;DHT22;7151;52.246;4.820;2022-09-28T16:59:49;17.60;75.20
14142;DHT22;7151;52.246;4.820;2022-09-28T17:02:16;17.60;75.20
14142;DHT22;7151;52.246;4.820;2022-09-28T17:04:42;17.60;75.30
14142;DHT22;7151;52.246;4.820;2022-09-28T17:07:10;17.60;75.30
14142;DHT22;7151;52.246;4.820;2022-09-28T17:09:36;17.60;75.30
14142;DHT22;7151;52.246;4.820;2022-09-28T17:12:04;17.50;75.20
14142;DHT22;7151;52.246;4.820;2022-09-28T17:14:30;17.50;75.20
14142;DHT22;7151;52.246;4.820;2022-09-28T17:16:57;17.50;75.30
14142;DHT22;7151;52.246;4.820;2022-09-28T17:19:24;17.50;75.30
14142;DHT22;7151;52.246;4.820;2022-09-28T17:21:51;17.50;75.50
14142;DHT22;7151;52.246;4.820;2022-09-28T17:24:17;17.50;75.50
14142;DHT22;7151;52.246;4.820;2022-09-28T17:26:48;17.50;75.70
14142;DHT22;7151;52.246;4.820;2022-09-28T17:29:15;17.40;75.70
14142;DHT22;7151;52.246;4.820;2022-09-28T17:31:42;17.40;75.70
14142;DHT22;7151;52.246;4.820;2022-09-28T17:34:09;17.40;75.80
14142;DHT22;7151;52.246;4.820;2022-09-28T17:36:35;17.40;76.50
14142;DHT22;7151;52.246;4.820;2022-09-28T17:39:01;17.40;75.70
14142;DHT22;7151;52.246;4.820;2022-09-28T17:41:27;17.40;75.70
14142;DHT22;7151;52.246;4.820;2022-09-28T17:43:53;17.40;75.60
14142;DHT22;7151;52.246;4.820;2022-09-28T17:48:55;17.40;75.50
14142;DHT22;7151;52.246;4.820;2022-09-28T17:51:27;17.40;75.40
14142;DHT22;7151;52.246;4.820;2022-09-28T17:53:55;17.30;75.30
14142;DHT22;7151;52.246;4.820;2022-09-28T17:56:21;17.30;75.40
14142;DHT22;7151;52.246;4.820;2022-09-28T17:58:47;17.30;75.40
14142;DHT22;7151;52.246;4.820;2022-09-28T18:01:13;17.30;75.40
14142;DHT22;7151;52.246;4.820;2022-09-28T18:03:38;17.20;75.20
14142;DHT22;7151;52.246;4.820;2022-09-28T18:06:05;17.20;75.20
14142;DHT22;7151;52.246;4.820;2022-09-28T18:08:31;17.20;75.30
14142;DHT22;7151;52.246;4.820;2022-09-28T18:10:57;17.20;75.30
14142;DHT22;7151;52.246;4.820;2022-09-28T18:13:23;17.20;75.30
14142;DHT22;7151;52.246;4.820;2022-09-28T18:15:54;17.10;75.20
14142;DHT22;7151;52.246;4.820;2022-09-28T18:18:20;17.10;75.20
14142;DHT22;7151;52.246;4.820;2022-09-28T18:20:46;17.10;75.20
14142;DHT22;7151;52.246;4.820;2022-09-28T18:23:12;17.10;75.30
14142;DHT22;7151;52.246;4.820;2022-09-28T18:25:42;17.00;75.20
14142;DHT22;7151;52.246;4.820;2022-09-28T18:28:08;17.00;75.20
14142;DHT22;7151;52.246;4.820;2022-09-28T18:30:38;17.00;75.20
14142;DHT22;7151;52.246;4.820;2022-09-28T18:33:04;17.00;75.30
14142;DHT22;7151;52.246;4.820;2022-09-28T18:35:29;17.00;75.30
14142;DHT22;7151;52.246;4.820;2022-09-28T18:37:55;16.90;75.40
14142;DHT22;7151;52.246;4.820;2022-09-28T18:40:20;16.90;75.50
14142;DHT22;7151;52.246;4.820;2022-09-28T18:42:48;17.00;75.60
14142;DHT22;7151;52.246;4.820;2022-09-28T18:45:14;16.90;75.80
14142;DHT22;7151;52.246;4.820;2022-09-28T18:47:41;16.90;75.90
14142;DHT22;7151;52.246;4.820;2022-09-28T18:50:08;16.90;75.90
14142;DHT22;7151;52.246;4.820;2022-09-28T18:52:38;16.90;75.90
14142;DHT22;7151;52.246;4.820;2022-09-28T18:55:05;16.90;75.90
14142;DHT22;7151;52.246;4.820;2022-09-28T18:57:33;16.80;75.70